createdAt,value
2023-05-14T00:02:49.575Z,74.80
2023-05-14T00:05:47.488Z,76.50
2023-05-14T00:08:45.193Z,75.30
2023-05-14T00:11:43.022Z,75.80
2023-05-14T00:14:40.853Z,75.80
2023-05-14T00:17:39.493Z,74.50
2023-05-14T00:20:37.266Z,73.70
2023-05-14T00:23:35.245Z,73.60
2023-05-14T00:26:32.971Z,74.20
2023-05-14T00:29:31.048Z,74.90
2023-05-14T00:32:28.784Z,75.50
2023-05-14T00:35:26.657Z,76.10
2023-05-14T00:38:28.104Z,75.40
2023-05-14T00:41:26.050Z,75.00
2023-05-14T00:44:23.886Z,74.30
2023-05-14T00:47:21.980Z,74.70
2023-05-14T00:50:20.346Z,73.70
2023-05-14T00:53:19.629Z,73.50
2023-05-14T00:56:18.307Z,74.40
2023-05-14T00:59:16.208Z,74.30
2023-05-14T01:02:13.904Z,74.20
2023-05-14T01:05:11.805Z,73.80
2023-05-14T01:08:32.332Z,74.70
2023-05-14T01:11:40.892Z,74.00
2023-05-14T01:14:57.075Z,73.80
2023-05-14T01:17:58.635Z,73.60
2023-05-14T01:20:56.383Z,73.30
2023-05-14T01:23:54.178Z,75.20
2023-05-14T01:26:52.793Z,75.60
2023-05-14T01:30:09.474Z,77.00
2023-05-14T01:33:11.643Z,76.70
2023-05-14T01:36:09.870Z,76.50
2023-05-14T01:39:10.394Z,76.50
2023-05-14T01:42:08.587Z,76.50
2023-05-14T01:45:07.289Z,76.90
2023-05-14T01:48:07.000Z,75.70
2023-05-14T01:51:05.079Z,76.70
2023-05-14T01:54:03.070Z,76.70
2023-05-14T01:57:00.870Z,78.40
2023-05-14T01:59:58.860Z,77.70
2023-05-14T02:02:56.670Z,76.70
2023-05-14T02:05:54.530Z,77.30
2023-05-14T02:08:52.276Z,77.40
2023-05-14T02:11:50.192Z,75.70
2023-05-14T02:14:47.891Z,74.50
2023-05-14T02:17:46.193Z,73.70
2023-05-14T02:20:44.051Z,71.30
2023-05-14T02:23:42.292Z,73.20
2023-05-14T02:26:40.169Z,69.70
2023-05-14T02:29:38.015Z,70.50
2023-05-14T02:32:38.968Z,69.30
2023-05-14T02:35:40.492Z,69.50
2023-05-14T02:38:41.717Z,67.30
2023-05-14T02:41:43.226Z,64.40
2023-05-14T02:44:44.288Z,64.50
2023-05-14T02:47:46.182Z,63.80
2023-05-14T02:50:47.500Z,66.10
2023-05-14T02:53:48.904Z,65.00
2023-05-14T02:56:49.944Z,65.70
2023-05-14T02:59:51.372Z,67.50
2023-05-14T03:02:52.923Z,65.30
2023-05-14T03:05:55.095Z,67.60
2023-05-14T03:08:56.108Z,66.70
2023-05-14T03:11:57.968Z,65.90
2023-05-14T03:14:59.813Z,63.40
2023-05-14T03:18:01.275Z,66.40
2023-05-14T03:21:06.090Z,67.30
2023-05-14T03:24:07.748Z,65.40
2023-05-14T03:27:08.994Z,66.50
2023-05-14T03:30:11.117Z,67.80
2023-05-14T03:33:12.217Z,65.90
2023-05-14T03:36:13.758Z,62.70
2023-05-14T03:39:17.518Z,62.80
2023-05-14T03:42:18.924Z,63.10
2023-05-14T03:45:19.910Z,62.60
2023-05-14T03:48:23.398Z,64.00
2023-05-14T03:51:24.484Z,63.40
2023-05-14T03:54:26.980Z,60.90
2023-05-14T03:57:27.219Z,61.30
2023-05-14T04:00:28.658Z,60.30
2023-05-14T04:03:29.779Z,56.70
2023-05-14T04:06:31.281Z,57.60
2023-05-14T04:09:32.604Z,58.70
2023-05-14T04:12:34.035Z,58.30
2023-05-14T04:15:35.832Z,55.90
2023-05-14T04:18:38.209Z,57.40
2023-05-14T04:21:38.420Z,56.90
2023-05-14T04:24:39.840Z,52.50
2023-05-14T04:27:40.931Z,54.70
2023-05-14T04:30:38.882Z,56.20
2023-05-14T04:33:36.584Z,52.50
2023-05-14T04:36:34.440Z,57.80
2023-05-14T04:39:32.138Z,58.60
2023-05-14T04:42:29.987Z,57.50
2023-05-14T04:45:27.728Z,58.70
2023-05-14T04:48:25.566Z,59.10
2023-05-14T04:51:23.742Z,55.80
2023-05-14T04:54:22.287Z,55.40
2023-05-14T04:57:20.071Z,53.20
2023-05-14T05:00:18.331Z,52.50
2023-05-14T05:03:16.339Z,54.50
2023-05-14T05:06:14.170Z,53.80
2023-05-14T05:09:12.114Z,50.40
2023-05-14T05:12:10.284Z,50.20
2023-05-14T05:15:09.918Z,49.70
2023-05-14T05:18:08.189Z,56.70
2023-05-14T05:21:07.363Z,56.20
2023-05-14T05:24:05.500Z,60.60
2023-05-14T05:27:03.761Z,54.90
2023-05-14T05:30:03.470Z,52.30
2023-05-14T05:33:01.311Z,52.50
2023-05-14T05:35:59.118Z,52.60
2023-05-14T05:38:56.903Z,53.70
2023-05-14T05:41:55.329Z,60.40
2023-05-14T05:44:53.069Z,50.60
2023-05-14T05:47:50.962Z,53.40
2023-05-14T05:50:50.853Z,57.00
2023-05-14T05:53:48.881Z,56.20
2023-05-14T05:56:46.617Z,53.10
2023-05-14T05:59:44.648Z,51.00
2023-05-14T06:02:42.942Z,51.90
2023-05-14T06:05:41.190Z,50.80
2023-05-14T06:08:38.921Z,52.00
2023-05-14T06:11:36.925Z,52.90
2023-05-14T06:14:34.652Z,56.30
2023-05-14T06:17:32.699Z,55.40
2023-05-14T06:20:30.512Z,58.40
2023-05-14T06:23:33.802Z,57.40
2023-05-14T06:26:31.504Z,64.70
2023-05-14T06:29:29.322Z,62.20
2023-05-14T06:32:27.060Z,68.10
2023-05-14T06:35:25.160Z,69.70
2023-05-14T06:38:22.851Z,72.00
2023-05-14T06:41:21.787Z,71.00
2023-05-14T06:44:20.514Z,69.40
2023-05-14T06:47:18.387Z,69.00
2023-05-14T06:50:16.222Z,67.90
2023-05-14T06:53:14.081Z,69.30
2023-05-14T06:56:11.838Z,72.00
2023-05-14T06:59:09.834Z,70.40
2023-05-14T07:02:08.334Z,63.00
2023-05-14T07:05:06.479Z,66.90
2023-05-14T07:08:04.293Z,63.50
2023-05-14T07:11:02.328Z,64.10
2023-05-14T07:14:00.423Z,70.00
2023-05-14T07:16:58.330Z,61.20
2023-05-14T07:19:56.431Z,60.10
2023-05-14T07:22:54.522Z,60.40
2023-05-14T07:25:52.338Z,62.50
2023-05-14T07:28:50.526Z,60.60
2023-05-14T07:31:48.321Z,61.70
2023-05-14T07:34:46.882Z,62.90
2023-05-14T07:37:44.715Z,59.30
2023-05-14T07:40:43.199Z,66.90
2023-05-14T07:43:41.005Z,57.50
2023-05-14T07:46:39.272Z,63.50
2023-05-14T07:49:37.437Z,62.90
2023-05-14T07:52:35.212Z,61.00
2023-05-14T07:55:33.134Z,56.20
2023-05-14T07:58:31.232Z,55.50
2023-05-14T08:01:28.954Z,57.70
2023-05-14T08:04:27.041Z,55.30
2023-05-14T08:07:25.181Z,54.50
2023-05-14T08:10:23.467Z,52.20
2023-05-14T08:13:21.424Z,50.30
2023-05-14T08:16:19.352Z,50.20
2023-05-14T08:19:17.286Z,50.50
2023-05-14T08:22:15.224Z,48.50
2023-05-14T08:25:13.054Z,49.40
2023-05-14T08:28:10.938Z,50.10
2023-05-14T08:31:09.003Z,52.50
2023-05-14T08:34:06.938Z,49.60
2023-05-14T08:37:04.929Z,49.70
2023-05-14T08:40:02.865Z,49.60
2023-05-14T08:43:02.703Z,50.40
2023-05-14T08:46:05.903Z,51.90
2023-05-14T08:49:39.212Z,51.10
2023-05-14T08:52:37.082Z,49.40
2023-05-14T08:55:34.888Z,51.80
2023-05-14T08:58:32.889Z,51.40
2023-05-14T09:01:30.706Z,47.20
2023-05-14T09:04:30.207Z,53.50
2023-05-14T09:07:28.885Z,58.20
2023-05-14T09:10:27.092Z,55.00
2023-05-14T09:13:26.917Z,63.20
2023-05-14T09:16:27.628Z,54.90
2023-05-14T09:19:26.091Z,51.80
2023-05-14T09:22:23.973Z,53.40
2023-05-14T09:25:27.025Z,53.20
2023-05-14T09:28:27.984Z,46.70
2023-05-14T09:31:25.837Z,54.40
2023-05-14T09:34:26.930Z,51.30
2023-05-14T09:37:26.519Z,54.40
2023-05-14T09:40:25.413Z,52.40
2023-05-14T09:43:23.320Z,52.90
2023-05-14T09:46:22.414Z,53.00
2023-05-14T09:49:20.920Z,53.50
2023-05-14T09:52:20.607Z,55.20
2023-05-14T09:55:18.949Z,54.70
2023-05-14T09:58:16.909Z,50.60
2023-05-14T10:01:17.775Z,54.10
2023-05-14T10:04:16.152Z,50.40
2023-05-14T10:07:14.246Z,53.30
2023-05-14T10:10:17.108Z,45.70
2023-05-14T10:13:20.765Z,45.00
2023-05-14T10:16:34.774Z,52.40
2023-05-14T10:19:35.803Z,48.60
2023-05-14T10:22:35.889Z,49.90
2023-05-14T10:25:34.762Z,49.40
2023-05-14T10:28:34.071Z,46.10
2023-05-14T10:31:48.365Z,42.90
2023-05-14T10:34:46.460Z,44.00
2023-05-14T10:37:46.785Z,49.50
2023-05-14T10:40:45.385Z,51.10
2023-05-14T10:43:45.001Z,58.60
2023-05-14T10:46:43.076Z,55.20
2023-05-14T10:49:43.927Z,52.90
2023-05-14T10:52:44.157Z,58.70
2023-05-14T10:55:43.640Z,61.90
2023-05-14T10:58:44.251Z,60.30
2023-05-14T11:01:42.141Z,60.80
2023-05-14T11:04:42.290Z,64.20
2023-05-14T11:07:42.520Z,65.10
2023-05-14T11:10:41.883Z,65.90
2023-05-14T11:13:41.562Z,64.30
2023-05-14T11:16:40.039Z,64.80
2023-05-14T11:19:37.855Z,65.90
2023-05-14T11:22:36.646Z,66.30
2023-05-14T11:25:34.362Z,65.10
2023-05-14T11:28:32.291Z,66.00
2023-05-14T11:31:30.132Z,64.30
2023-05-14T11:34:28.032Z,63.00
2023-05-14T11:37:25.754Z,66.90
2023-05-14T11:40:23.922Z,65.50
2023-05-14T11:43:24.191Z,56.70
2023-05-14T11:46:22.272Z,57.70
2023-05-14T11:49:23.587Z,56.90
2023-05-14T11:52:22.550Z,57.20
2023-05-14T11:55:21.313Z,53.10
2023-05-14T11:58:19.579Z,56.00
2023-05-14T12:01:17.695Z,59.00
2023-05-14T12:04:15.706Z,59.80
2023-05-14T12:07:16.414Z,56.40
2023-05-14T12:10:14.637Z,59.50
2023-05-14T12:13:17.364Z,63.90
2023-05-14T12:16:15.303Z,64.10
2023-05-14T12:19:16.011Z,61.00
2023-05-14T12:22:19.390Z,57.10
2023-05-14T12:25:17.532Z,64.40
2023-05-14T12:28:16.430Z,62.30
2023-05-14T12:31:16.051Z,64.80
2023-05-14T12:34:14.292Z,62.10
2023-05-14T12:37:12.028Z,62.30
2023-05-14T12:40:10.375Z,65.30
2023-05-14T12:43:08.137Z,68.50
2023-05-14T12:46:06.031Z,62.30
2023-05-14T12:49:04.245Z,61.90
2023-05-14T12:52:19.411Z,62.40
2023-05-14T12:55:19.718Z,69.60
2023-05-14T12:58:17.536Z,67.30
2023-05-14T13:01:15.321Z,69.60
2023-05-14T13:04:13.362Z,69.80
2023-05-14T13:07:11.282Z,71.00
2023-05-14T13:10:09.701Z,72.80
2023-05-14T13:13:07.572Z,70.20
2023-05-14T13:16:05.697Z,69.00
2023-05-14T13:19:03.752Z,70.60
2023-05-14T13:22:01.610Z,69.80
2023-05-14T13:24:59.552Z,65.90
2023-05-14T13:27:57.401Z,67.60
2023-05-14T13:31:11.608Z,65.30
2023-05-14T13:34:10.745Z,63.50
2023-05-14T13:37:08.488Z,66.10
2023-05-14T13:40:08.930Z,72.00
2023-05-14T13:43:06.635Z,64.30
2023-05-14T13:46:06.626Z,63.90
2023-05-14T13:49:04.532Z,63.80
2023-05-14T13:52:02.365Z,66.00
2023-05-14T13:55:00.060Z,63.00
2023-05-14T13:57:57.941Z,67.60
2023-05-14T14:00:55.810Z,74.20
2023-05-14T14:03:53.596Z,72.80
2023-05-14T14:06:51.322Z,74.00
2023-05-14T14:09:49.120Z,70.80
2023-05-14T14:12:46.886Z,69.20
2023-05-14T14:15:44.924Z,69.20
2023-05-14T14:18:43.759Z,67.70
2023-05-14T14:21:43.344Z,66.10
2023-05-14T14:24:41.257Z,64.50
2023-05-14T14:27:39.684Z,66.00
2023-05-14T14:30:37.421Z,64.00
2023-05-14T14:33:35.604Z,64.90
2023-05-14T14:36:33.317Z,63.10
2023-05-14T14:39:31.320Z,63.60
2023-05-14T14:42:29.049Z,63.50
2023-05-14T14:45:26.854Z,63.60
2023-05-14T14:48:29.333Z,60.10
2023-05-14T14:51:27.397Z,60.20
2023-05-14T14:54:25.283Z,59.60
2023-05-14T14:57:23.315Z,58.60
2023-05-14T15:00:21.169Z,58.40
2023-05-14T15:03:19.892Z,57.70
2023-05-14T15:06:17.724Z,58.30
2023-05-14T15:09:15.561Z,59.00
2023-05-14T15:12:14.589Z,60.80
2023-05-14T15:15:12.435Z,62.20
2023-05-14T15:18:10.702Z,61.60
2023-05-14T15:21:08.545Z,61.40
2023-05-14T15:24:06.648Z,61.60
2023-05-14T15:27:04.699Z,64.90
2023-05-14T15:30:02.822Z,64.10
2023-05-14T15:33:00.866Z,60.70
2023-05-14T15:35:58.641Z,66.80
2023-05-14T15:38:56.760Z,61.90
2023-05-14T15:41:54.490Z,64.50
2023-05-14T15:44:52.289Z,62.40
2023-05-14T15:47:50.151Z,61.30
2023-05-14T15:50:49.888Z,60.10
2023-05-14T15:53:47.736Z,60.70
2023-05-14T15:56:45.815Z,60.00
2023-05-14T15:59:45.096Z,60.60
2023-05-14T16:02:43.034Z,60.40
2023-05-14T16:05:41.040Z,60.00
2023-05-14T16:08:39.352Z,60.00
2023-05-14T16:11:37.109Z,61.40
2023-05-14T16:14:36.219Z,59.00
2023-05-14T16:17:34.268Z,59.60
2023-05-14T16:20:32.305Z,59.00
2023-05-14T16:23:30.096Z,59.00
2023-05-14T16:26:28.245Z,58.30
2023-05-14T16:29:26.058Z,59.70
2023-05-14T16:32:25.600Z,58.70
2023-05-14T16:35:23.389Z,58.60
2023-05-14T16:38:21.461Z,59.90
2023-05-14T16:41:19.193Z,59.40
2023-05-14T16:44:17.226Z,58.90
2023-05-14T16:47:14.933Z,60.10
2023-05-14T16:50:13.357Z,59.60
2023-05-14T16:53:11.537Z,60.30
2023-05-14T16:56:09.356Z,59.10
2023-05-14T16:59:08.021Z,58.90
2023-05-14T17:02:06.628Z,61.20
2023-05-14T17:05:04.748Z,58.60
2023-05-14T17:08:02.604Z,59.70
2023-05-14T17:11:00.653Z,59.20
2023-05-14T17:13:58.484Z,60.50
2023-05-14T17:16:56.364Z,61.00
2023-05-14T17:19:54.200Z,60.80
2023-05-14T17:22:52.096Z,61.50
2023-05-14T17:25:50.279Z,60.70
2023-05-14T17:28:47.998Z,60.40
2023-05-14T17:31:45.969Z,59.30
2023-05-14T17:34:43.929Z,59.90
2023-05-14T17:37:43.393Z,59.80
2023-05-14T17:40:41.353Z,63.70
2023-05-14T17:43:39.238Z,64.20
2023-05-14T17:46:37.165Z,64.20
2023-05-14T17:49:35.953Z,64.30
2023-05-14T17:52:33.682Z,64.30
2023-05-14T17:55:31.605Z,66.40
2023-05-14T17:58:29.407Z,66.40
2023-05-14T18:01:27.416Z,64.30
2023-05-14T18:04:25.282Z,64.80
2023-05-14T18:07:23.178Z,64.40
2023-05-14T18:10:21.144Z,64.60
2023-05-14T18:13:19.037Z,66.10
2023-05-14T18:16:16.908Z,66.90
2023-05-14T18:19:14.974Z,67.50
2023-05-14T18:22:13.254Z,68.70
2023-05-14T18:25:11.287Z,68.00
2023-05-14T18:28:10.052Z,68.40
2023-05-14T18:31:07.973Z,68.40
2023-05-14T18:34:05.940Z,66.50
2023-05-14T18:37:03.748Z,66.70
2023-05-14T18:40:02.006Z,70.50
2023-05-14T18:42:59.849Z,68.20
2023-05-14T18:45:57.649Z,68.30
2023-05-14T18:48:57.007Z,68.60
2023-05-14T18:51:54.777Z,69.00
2023-05-14T18:54:52.936Z,69.30
2023-05-14T18:57:50.792Z,70.30
2023-05-14T19:00:48.639Z,69.80
2023-05-14T19:03:46.444Z,70.00
2023-05-14T19:06:44.503Z,70.50
2023-05-14T19:09:42.207Z,70.80
2023-05-14T19:12:40.026Z,70.60
2023-05-14T19:15:38.188Z,72.60
2023-05-14T19:18:36.128Z,70.60
2023-05-14T19:21:33.849Z,70.60
2023-05-14T19:24:31.667Z,72.70
2023-05-14T19:27:29.721Z,71.50
2023-05-14T19:30:27.589Z,71.90
2023-05-14T19:33:26.453Z,72.80
2023-05-14T19:36:24.297Z,73.00
2023-05-14T19:39:22.051Z,73.00
2023-05-14T19:42:19.938Z,73.10
2023-05-14T19:45:17.849Z,73.70
2023-05-14T19:48:16.568Z,72.70
2023-05-14T19:51:14.372Z,72.30
2023-05-14T19:54:12.232Z,72.50
2023-05-14T19:57:10.351Z,73.70
2023-05-14T20:00:09.599Z,73.50
2023-05-14T20:03:07.498Z,73.50
2023-05-14T20:06:05.612Z,73.70
2023-05-14T20:09:06.276Z,74.00
2023-05-14T20:12:04.218Z,74.30
2023-05-14T20:15:02.041Z,75.30
2023-05-14T20:17:59.903Z,76.40
2023-05-14T20:20:57.744Z,75.70
2023-05-14T20:23:55.549Z,76.70
2023-05-14T20:26:53.499Z,75.90
2023-05-14T20:29:52.350Z,75.70
2023-05-14T20:32:50.169Z,76.90
2023-05-14T20:35:48.953Z,76.10
2023-05-14T20:38:47.881Z,76.10
2023-05-14T20:41:46.717Z,76.60
2023-05-14T20:44:45.004Z,77.50
2023-05-14T20:47:42.871Z,77.10
2023-05-14T20:50:40.597Z,76.40
2023-05-14T20:53:39.676Z,77.00
2023-05-14T20:56:37.486Z,77.10
2023-05-14T20:59:35.310Z,76.70
2023-05-14T21:02:33.133Z,78.30
2023-05-14T21:05:31.151Z,77.50
2023-05-14T21:08:28.976Z,77.10
2023-05-14T21:11:26.800Z,76.10
2023-05-14T21:14:24.542Z,77.90
2023-05-14T21:17:22.465Z,76.30
2023-05-14T21:20:20.275Z,77.30
2023-05-14T21:23:20.064Z,76.90
2023-05-14T21:26:17.840Z,77.90
2023-05-14T21:29:15.654Z,76.70
2023-05-14T21:32:13.423Z,76.20
2023-05-14T21:35:11.411Z,76.50
2023-05-14T21:38:09.571Z,76.80
2023-05-14T21:41:07.421Z,78.10
2023-05-14T21:44:05.167Z,78.20
2023-05-14T21:47:02.990Z,78.30
2023-05-14T21:50:00.758Z,78.60
2023-05-14T21:52:58.588Z,79.10
2023-05-14T21:55:56.311Z,78.30
2023-05-14T21:58:56.611Z,77.90
2023-05-14T22:04:55.067Z,78.20
2023-05-14T22:07:52.934Z,77.60
2023-05-14T22:10:50.863Z,77.90
2023-05-14T22:13:48.558Z,78.30
2023-05-14T22:16:46.779Z,78.90
2023-05-14T22:19:44.542Z,78.60
2023-05-14T22:22:42.374Z,79.80
2023-05-14T22:25:40.189Z,78.80
2023-05-14T22:28:40.436Z,80.10
2023-05-14T22:31:38.174Z,80.90
2023-05-14T22:34:36.084Z,79.50
2023-05-14T22:37:33.814Z,80.60
2023-05-14T22:40:31.640Z,80.90
2023-05-14T22:43:29.468Z,80.00
2023-05-14T22:46:27.396Z,79.60
2023-05-14T22:49:25.155Z,80.20
2023-05-14T22:52:23.003Z,79.70
2023-05-14T22:55:20.733Z,80.20
2023-05-14T22:58:18.550Z,80.70
2023-05-14T23:01:16.372Z,81.10
2023-05-14T23:04:14.301Z,81.00
2023-05-14T23:07:12.155Z,81.10
2023-05-14T23:10:10.401Z,81.50
2023-05-14T23:13:08.096Z,81.30
2023-05-14T23:16:06.794Z,81.00
2023-05-14T23:19:04.641Z,81.00
2023-05-14T23:22:02.663Z,81.10
2023-05-14T23:25:00.435Z,81.00
2023-05-14T23:27:58.435Z,80.90
2023-05-14T23:30:56.229Z,80.90
2023-05-14T23:33:54.239Z,80.90
2023-05-14T23:36:52.217Z,81.50
2023-05-14T23:39:50.173Z,81.80
2023-05-14T23:42:48.039Z,81.90
2023-05-14T23:45:46.062Z,82.40
2023-05-14T23:48:44.037Z,81.60
2023-05-14T23:51:41.927Z,81.80
2023-05-14T23:54:39.778Z,81.50
2023-05-14T23:57:37.944Z,82.00
